Lima, Ohio
Current Conditions -  °F | °C
As of 3:53 PM on Tuesday 27 Jan 2015 (Local Time) from KAOH Reporting Station
Clear Clear  
Wind Chill:   Ceiling: Unl
Heat Index: 21°   Visibility: 10mi
Dew Point: 12°   Wind: 14mph
Humidity: 68%   Direction: 310°NW
Pressure: 30.12"   Gusts: NA
Location:  40.74°N, 84.11°W
Report Text: KAOH 272053Z AUTO 31012KT 10SM CLR M06/M11 A3012 RMK AO2 SLP218 T10611111 53013
Loading
Personal Weather Stations






























Interactive Weather Map New forecast layout! Learn more

10-Day Weather Forecast

Advertisements
Track Severe Weather on mobile